sensor_id;sensor_type;location;lat;lon;timestamp;P1;durP1;ratioP1;P2;durP2;ratioP2
67041;SDS011;53949;47.790;18.750;2022-12-11T00:02:06;20.40;;;10.15;;
67041;SDS011;53949;47.790;18.750;2022-12-11T00:05:11;19.15;;;10.43;;
67041;SDS011;53949;47.790;18.750;2022-12-11T00:08:14;21.95;;;11.12;;
67041;SDS011;53949;47.790;18.750;2022-12-11T00:11:19;20.63;;;10.57;;
67041;SDS011;53949;47.790;18.750;2022-12-11T00:14:28;21.45;;;10.68;;
67041;SDS011;53949;47.790;18.750;2022-12-11T00:17:35;21.95;;;10.25;;
67041;SDS011;53949;47.790;18.750;2022-12-11T00:20:38;16.15;;;8.93;;
67041;SDS011;53949;47.790;18.750;2022-12-11T00:23:44;16.77;;;9.20;;
67041;SDS011;53949;47.790;18.750;2022-12-11T00:26:48;17.77;;;9.75;;
67041;SDS011;53949;47.790;18.750;2022-12-11T00:29:51;23.87;;;11.25;;
67041;SDS011;53949;47.790;18.750;2022-12-11T00:32:54;16.95;;;9.05;;
67041;SDS011;53949;47.790;18.750;2022-12-11T00:36:02;11.80;;;6.95;;
67041;SDS011;53949;47.790;18.750;2022-12-11T00:39:08;21.23;;;9.55;;
67041;SDS011;53949;47.790;18.750;2022-12-11T00:42:15;22.27;;;10.73;;
67041;SDS011;53949;47.790;18.750;2022-12-11T00:45:20;22.58;;;9.90;;
67041;SDS011;53949;47.790;18.750;2022-12-11T00:48:24;21.52;;;9.38;;
67041;SDS011;53949;47.790;18.750;2022-12-11T00:51:27;14.57;;;6.95;;
67041;SDS011;53949;47.790;18.750;2022-12-11T00:54:34;19.50;;;8.43;;
67041;SDS011;53949;47.790;18.750;2022-12-11T00:57:38;19.90;;;9.23;;
67041;SDS011;53949;47.790;18.750;2022-12-11T01:00:43;18.13;;;8.87;;
67041;SDS011;53949;47.790;18.750;2022-12-11T01:03:48;23.00;;;9.45;;
67041;SDS011;53949;47.790;18.750;2022-12-11T01:06:53;19.25;;;9.13;;
67041;SDS011;53949;47.790;18.750;2022-12-11T01:09:56;13.30;;;6.93;;
67041;SDS011;53949;47.790;18.750;2022-12-11T01:13:18;16.87;;;8.40;;
67041;SDS011;53949;47.790;18.750;2022-12-11T01:16:22;10.88;;;6.28;;
67041;SDS011;53949;47.790;18.750;2022-12-11T01:19:25;14.07;;;8.23;;
67041;SDS011;53949;47.790;18.750;2022-12-11T01:22:29;22.35;;;9.93;;
67041;SDS011;53949;47.790;18.750;2022-12-11T01:25:33;13.48;;;7.40;;
67041;SDS011;53949;47.790;18.750;2022-12-11T01:28:40;13.77;;;7.87;;
67041;SDS011;53949;47.790;18.750;2022-12-11T01:31:50;8.82;;;4.30;;
67041;SDS011;53949;47.790;18.750;2022-12-11T01:37:59;9.60;;;5.15;;
67041;SDS011;53949;47.790;18.750;2022-12-11T01:41:07;13.18;;;6.43;;
67041;SDS011;53949;47.790;18.750;2022-12-11T01:47:19;13.55;;;7.82;;
67041;SDS011;53949;47.790;18.750;2022-12-11T01:50:23;9.75;;;6.10;;
67041;SDS011;53949;47.790;18.750;2022-12-11T01:53:29;11.05;;;6.37;;
67041;SDS011;53949;47.790;18.750;2022-12-11T01:56:37;9.07;;;5.50;;
67041;SDS011;53949;47.790;18.750;2022-12-11T01:59:42;10.82;;;6.20;;
67041;SDS011;53949;47.790;18.750;2022-12-11T02:02:47;8.98;;;5.05;;
67041;SDS011;53949;47.790;18.750;2022-12-11T02:05:53;7.90;;;3.87;;
67041;SDS011;53949;47.790;18.750;2022-12-11T02:08:56;10.48;;;5.35;;
67041;SDS011;53949;47.790;18.750;2022-12-11T02:15:35;10.90;;;5.47;;
67041;SDS011;53949;47.790;18.750;2022-12-11T02:18:49;9.63;;;5.35;;
67041;SDS011;53949;47.790;18.750;2022-12-11T02:21:58;10.02;;;5.25;;
67041;SDS011;53949;47.790;18.750;2022-12-11T02:28:29;8.05;;;4.12;;
67041;SDS011;53949;47.790;18.750;2022-12-11T02:31:56;8.32;;;4.80;;
67041;SDS011;53949;47.790;18.750;2022-12-11T02:35:08;5.45;;;3.53;;
67041;SDS011;53949;47.790;18.750;2022-12-11T02:38:15;3.50;;;2.58;;
67041;SDS011;53949;47.790;18.750;2022-12-11T02:41:22;7.18;;;4.60;;
67041;SDS011;53949;47.790;18.750;2022-12-11T02:44:29;7.75;;;4.22;;
67041;SDS011;53949;47.790;18.750;2022-12-11T02:47:35;7.20;;;3.33;;
67041;SDS011;53949;47.790;18.750;2022-12-11T02:50:41;8.32;;;3.62;;
67041;SDS011;53949;47.790;18.750;2022-12-11T02:53:52;7.90;;;4.65;;
67041;SDS011;53949;47.790;18.750;2022-12-11T02:57:01;6.60;;;2.70;;
67041;SDS011;53949;47.790;18.750;2022-12-11T03:00:10;4.78;;;2.90;;
67041;SDS011;53949;47.790;18.750;2022-12-11T03:03:14;5.00;;;3.10;;
67041;SDS011;53949;47.790;18.750;2022-12-11T03:09:24;3.42;;;2.53;;
67041;SDS011;53949;47.790;18.750;2022-12-11T03:12:31;6.53;;;3.62;;
67041;SDS011;53949;47.790;18.750;2022-12-11T03:19:18;7.45;;;3.90;;
67041;SDS011;53949;47.790;18.750;2022-12-11T03:22:36;6.05;;;3.85;;
67041;SDS011;53949;47.790;18.750;2022-12-11T03:26:03;6.10;;;3.50;;
67041;SDS011;53949;47.790;18.750;2022-12-11T03:29:20;4.43;;;3.30;;
67041;SDS011;53949;47.790;18.750;2022-12-11T03:32:27;4.70;;;3.30;;
67041;SDS011;53949;47.790;18.750;2022-12-11T03:35:39;11.50;;;3.03;;
67041;SDS011;53949;47.790;18.750;2022-12-11T03:38:46;7.00;;;5.10;;
67041;SDS011;53949;47.790;18.750;2022-12-11T03:41:51;6.35;;;4.28;;
67041;SDS011;53949;47.790;18.750;2022-12-11T03:44:56;6.85;;;4.32;;
67041;SDS011;53949;47.790;18.750;2022-12-11T03:48:00;7.57;;;4.13;;
67041;SDS011;53949;47.790;18.750;2022-12-11T03:51:07;5.97;;;3.53;;
67041;SDS011;53949;47.790;18.750;2022-12-11T03:54:10;7.10;;;4.25;;
67041;SDS011;53949;47.790;18.750;2022-12-11T03:57:16;5.97;;;3.17;;
67041;SDS011;53949;47.790;18.750;2022-12-11T04:00:21;9.23;;;4.68;;
67041;SDS011;53949;47.790;18.750;2022-12-11T04:03:25;10.57;;;4.05;;
67041;SDS011;53949;47.790;18.750;2022-12-11T04:06:28;5.22;;;3.55;;
67041;SDS011;53949;47.790;18.750;2022-12-11T04:09:32;6.93;;;3.97;;
67041;SDS011;53949;47.790;18.750;2022-12-11T04:12:36;6.35;;;3.65;;
67041;SDS011;53949;47.790;18.750;2022-12-11T04:15:39;6.28;;;3.67;;
67041;SDS011;53949;47.790;18.750;2022-12-11T04:18:42;7.12;;;4.25;;
67041;SDS011;53949;47.790;18.750;2022-12-11T04:22:04;6.07;;;3.78;;
67041;SDS011;53949;47.790;18.750;2022-12-11T04:25:25;3.72;;;1.92;;
67041;SDS011;53949;47.790;18.750;2022-12-11T04:28:30;6.55;;;3.50;;
67041;SDS011;53949;47.790;18.750;2022-12-11T04:31:33;7.65;;;3.58;;
67041;SDS011;53949;47.790;18.750;2022-12-11T04:34:37;6.15;;;3.72;;
67041;SDS011;53949;47.790;18.750;2022-12-11T04:40:45;5.93;;;3.33;;
67041;SDS011;53949;47.790;18.750;2022-12-11T04:43:48;8.00;;;3.47;;
67041;SDS011;53949;47.790;18.750;2022-12-11T04:46:51;5.50;;;3.10;;
67041;SDS011;53949;47.790;18.750;2022-12-11T04:49:54;6.55;;;3.45;;
67041;SDS011;53949;47.790;18.750;2022-12-11T04:52:59;6.87;;;3.80;;
67041;SDS011;53949;47.790;18.750;2022-12-11T04:56:09;8.35;;;3.10;;
67041;SDS011;53949;47.790;18.750;2022-12-11T04:59:14;6.97;;;3.72;;
67041;SDS011;53949;47.790;18.750;2022-12-11T05:02:19;3.42;;;2.00;;
67041;SDS011;53949;47.790;18.750;2022-12-11T05:05:23;4.60;;;3.03;;
67041;SDS011;53949;47.790;18.750;2022-12-11T05:08:26;4.32;;;3.03;;
67041;SDS011;53949;47.790;18.750;2022-12-11T05:11:29;5.82;;;3.60;;
67041;SDS011;53949;47.790;18.750;2022-12-11T05:14:33;5.05;;;2.87;;
67041;SDS011;53949;47.790;18.750;2022-12-11T05:17:38;5.90;;;3.25;;
67041;SDS011;53949;47.790;18.750;2022-12-11T05:20:44;5.53;;;2.85;;
67041;SDS011;53949;47.790;18.750;2022-12-11T05:23:57;5.22;;;3.05;;
67041;SDS011;53949;47.790;18.750;2022-12-11T05:27:00;7.70;;;2.92;;
67041;SDS011;53949;47.790;18.750;2022-12-11T05:30:05;4.85;;;3.17;;
67041;SDS011;53949;47.790;18.750;2022-12-11T05:33:08;3.20;;;2.58;;
67041;SDS011;53949;47.790;18.750;2022-12-11T05:36:16;5.85;;;3.00;;
67041;SDS011;53949;47.790;18.750;2022-12-11T05:39:20;6.87;;;4.05;;
67041;SDS011;53949;47.790;18.750;2022-12-11T05:42:24;5.62;;;3.78;;
67041;SDS011;53949;47.790;18.750;2022-12-11T05:45:30;8.77;;;4.78;;
67041;SDS011;53949;47.790;18.750;2022-12-11T05:48:35;9.27;;;4.23;;
67041;SDS011;53949;47.790;18.750;2022-12-11T05:51:39;10.73;;;4.90;;
67041;SDS011;53949;47.790;18.750;2022-12-11T05:54:43;7.13;;;3.47;;
67041;SDS011;53949;47.790;18.750;2022-12-11T05:57:47;9.80;;;5.45;;
67041;SDS011;53949;47.790;18.750;2022-12-11T06:00:50;9.60;;;5.50;;
67041;SDS011;53949;47.790;18.750;2022-12-11T06:03:55;9.88;;;5.62;;
67041;SDS011;53949;47.790;18.750;2022-12-11T06:06:59;9.40;;;5.43;;
67041;SDS011;53949;47.790;18.750;2022-12-11T06:10:03;10.07;;;5.68;;
67041;SDS011;53949;47.790;18.750;2022-12-11T06:13:07;12.80;;;5.53;;
67041;SDS011;53949;47.790;18.750;2022-12-11T06:16:10;5.53;;;3.83;;
67041;SDS011;53949;47.790;18.750;2022-12-11T06:19:15;10.13;;;5.20;;
67041;SDS011;53949;47.790;18.750;2022-12-11T06:22:20;10.40;;;5.40;;
67041;SDS011;53949;47.790;18.750;2022-12-11T06:25:23;8.20;;;4.75;;
67041;SDS011;53949;47.790;18.750;2022-12-11T06:28:26;11.15;;;5.28;;
67041;SDS011;53949;47.790;18.750;2022-12-11T06:31:29;9.07;;;4.82;;
67041;SDS011;53949;47.790;18.750;2022-12-11T06:34:33;8.15;;;4.32;;
67041;SDS011;53949;47.790;18.750;2022-12-11T06:37:37;11.57;;;5.57;;
67041;SDS011;53949;47.790;18.750;2022-12-11T06:40:41;10.68;;;5.57;;
67041;SDS011;53949;47.790;18.750;2022-12-11T06:43:44;10.27;;;4.72;;
67041;SDS011;53949;47.790;18.750;2022-12-11T06:46:47;10.07;;;5.40;;
67041;SDS011;53949;47.790;18.750;2022-12-11T06:49:50;6.12;;;4.15;;
67041;SDS011;53949;47.790;18.750;2022-12-11T06:52:55;4.75;;;3.20;;
67041;SDS011;53949;47.790;18.750;2022-12-11T06:56:09;9.02;;;4.35;;
67041;SDS011;53949;47.790;18.750;2022-12-11T06:59:14;7.47;;;3.83;;
67041;SDS011;53949;47.790;18.750;2022-12-11T07:02:18;8.55;;;3.78;;
67041;SDS011;53949;47.790;18.750;2022-12-11T07:05:22;5.55;;;3.40;;
67041;SDS011;53949;47.790;18.750;2022-12-11T07:08:27;6.72;;;3.40;;
67041;SDS011;53949;47.790;18.750;2022-12-11T07:11:31;6.82;;;4.10;;
67041;SDS011;53949;47.790;18.750;2022-12-11T07:14:34;4.28;;;2.92;;
67041;SDS011;53949;47.790;18.750;2022-12-11T07:17:39;3.92;;;2.55;;
67041;SDS011;53949;47.790;18.750;2022-12-11T07:20:44;5.90;;;3.35;;
67041;SDS011;53949;47.790;18.750;2022-12-11T07:23:49;2.35;;;2.03;;
67041;SDS011;53949;47.790;18.750;2022-12-11T07:26:52;4.40;;;2.28;;
67041;SDS011;53949;47.790;18.750;2022-12-11T07:29:56;4.68;;;3.20;;
67041;SDS011;53949;47.790;18.750;2022-12-11T07:33:01;6.78;;;3.40;;
67041;SDS011;53949;47.790;18.750;2022-12-11T07:36:05;4.90;;;3.03;;
67041;SDS011;53949;47.790;18.750;2022-12-11T07:39:11;6.85;;;3.22;;
67041;SDS011;53949;47.790;18.750;2022-12-11T07:42:14;4.60;;;2.70;;
67041;SDS011;53949;47.790;18.750;2022-12-11T07:45:17;4.97;;;2.75;;
67041;SDS011;53949;47.790;18.750;2022-12-11T07:48:21;5.78;;;2.65;;
67041;SDS011;53949;47.790;18.750;2022-12-11T07:51:26;4.87;;;2.97;;
67041;SDS011;53949;47.790;18.750;2022-12-11T07:54:33;4.82;;;3.00;;
67041;SDS011;53949;47.790;18.750;2022-12-11T07:57:36;4.87;;;3.22;;
67041;SDS011;53949;47.790;18.750;2022-12-11T08:00:39;4.22;;;2.42;;
67041;SDS011;53949;47.790;18.750;2022-12-11T08:03:43;4.80;;;2.60;;
67041;SDS011;53949;47.790;18.750;2022-12-11T08:06:48;7.80;;;3.25;;
67041;SDS011;53949;47.790;18.750;2022-12-11T08:09:51;2.47;;;1.98;;
67041;SDS011;53949;47.790;18.750;2022-12-11T08:12:55;3.75;;;2.40;;
67041;SDS011;53949;47.790;18.750;2022-12-11T08:15:58;4.90;;;2.53;;
67041;SDS011;53949;47.790;18.750;2022-12-11T08:19:08;3.80;;;2.58;;
67041;SDS011;53949;47.790;18.750;2022-12-11T08:22:12;2.17;;;1.98;;
67041;SDS011;53949;47.790;18.750;2022-12-11T08:25:17;4.68;;;2.42;;
67041;SDS011;53949;47.790;18.750;2022-12-11T08:28:20;6.05;;;2.80;;
67041;SDS011;53949;47.790;18.750;2022-12-11T08:31:25;5.57;;;2.30;;
67041;SDS011;53949;47.790;18.750;2022-12-11T08:34:31;3.20;;;1.85;;
67041;SDS011;53949;47.790;18.750;2022-12-11T08:37:36;2.78;;;1.65;;
67041;SDS011;53949;47.790;18.750;2022-12-11T08:40:41;3.90;;;2.42;;
67041;SDS011;53949;47.790;18.750;2022-12-11T08:43:44;3.47;;;2.53;;
67041;SDS011;53949;47.790;18.750;2022-12-11T08:46:48;5.43;;;2.83;;
67041;SDS011;53949;47.790;18.750;2022-12-11T08:49:51;3.00;;;1.98;;
67041;SDS011;53949;47.790;18.750;2022-12-11T08:52:54;3.50;;;2.75;;
67041;SDS011;53949;47.790;18.750;2022-12-11T08:56:32;3.17;;;2.35;;
67041;SDS011;53949;47.790;18.750;2022-12-11T08:59:28;4.62;;;2.17;;
67041;SDS011;53949;47.790;18.750;2022-12-11T09:02:32;5.60;;;1.70;;
67041;SDS011;53949;47.790;18.750;2022-12-11T09:05:37;2.65;;;1.62;;
67041;SDS011;53949;47.790;18.750;2022-12-11T09:08:40;1.60;;;1.25;;
67041;SDS011;53949;47.790;18.750;2022-12-11T09:11:51;4.55;;;1.95;;
67041;SDS011;53949;47.790;18.750;2022-12-11T09:14:55;4.57;;;2.42;;
67041;SDS011;53949;47.790;18.750;2022-12-11T09:17:58;3.47;;;2.28;;
67041;SDS011;53949;47.790;18.750;2022-12-11T09:21:02;13.30;;;2.20;;
67041;SDS011;53949;47.790;18.750;2022-12-11T09:24:15;1.55;;;1.33;;
67041;SDS011;53949;47.790;18.750;2022-12-11T09:27:26;3.20;;;1.90;;
67041;SDS011;53949;47.790;18.750;2022-12-11T09:30:31;1.42;;;1.33;;
67041;SDS011;53949;47.790;18.750;2022-12-11T09:33:38;4.90;;;2.67;;
67041;SDS011;53949;47.790;18.750;2022-12-11T09:36:46;4.30;;;2.50;;
67041;SDS011;53949;47.790;18.750;2022-12-11T09:39:54;5.47;;;2.53;;
67041;SDS011;53949;47.790;18.750;2022-12-11T09:50:03;1.48;;;1.37;;
67041;SDS011;53949;47.790;18.750;2022-12-11T09:53:23;3.35;;;2.42;;
67041;SDS011;53949;47.790;18.750;2022-12-11T09:56:41;3.03;;;2.25;;
67041;SDS011;53949;47.790;18.750;2022-12-11T10:17:39;4.00;;;2.33;;
67041;SDS011;53949;47.790;18.750;2022-12-11T10:20:52;2.00;;;1.80;;
67041;SDS011;53949;47.790;18.750;2022-12-11T10:28:11;4.25;;;1.87;;
67041;SDS011;53949;47.790;18.750;2022-12-11T10:31:23;4.15;;;2.55;;
67041;SDS011;53949;47.790;18.750;2022-12-11T10:34:39;3.80;;;2.83;;
67041;SDS011;53949;47.790;18.750;2022-12-11T10:37:49;4.18;;;2.75;;
67041;SDS011;53949;47.790;18.750;2022-12-11T10:40:58;4.00;;;2.55;;
67041;SDS011;53949;47.790;18.750;2022-12-11T10:44:16;2.22;;;2.03;;
67041;SDS011;53949;47.790;18.750;2022-12-11T10:47:21;2.67;;;2.47;;
67041;SDS011;53949;47.790;18.750;2022-12-11T10:50:26;5.95;;;3.00;;
67041;SDS011;53949;47.790;18.750;2022-12-11T10:56:38;4.62;;;2.17;;
67041;SDS011;53949;47.790;18.750;2022-12-11T11:02:45;2.37;;;1.55;;
67041;SDS011;53949;47.790;18.750;2022-12-11T11:06:00;8.65;;;2.83;;
67041;SDS011;53949;47.790;18.750;2022-12-11T11:09:28;4.47;;;2.15;;
67041;SDS011;53949;47.790;18.750;2022-12-11T11:12:45;5.78;;;2.78;;
67041;SDS011;53949;47.790;18.750;2022-12-11T11:16:03;1.62;;;1.37;;
67041;SDS011;53949;47.790;18.750;2022-12-11T11:19:29;4.57;;;2.10;;
67041;SDS011;53949;47.790;18.750;2022-12-11T11:22:44;3.15;;;2.15;;
67041;SDS011;53949;47.790;18.750;2022-12-11T11:25:55;4.75;;;2.67;;
67041;SDS011;53949;47.790;18.750;2022-12-11T11:29:00;2.45;;;2.05;;
67041;SDS011;53949;47.790;18.750;2022-12-11T11:32:18;3.03;;;2.67;;
67041;SDS011;53949;47.790;18.750;2022-12-11T11:35:31;3.12;;;2.30;;
67041;SDS011;53949;47.790;18.750;2022-12-11T11:38:38;3.25;;;2.25;;
67041;SDS011;53949;47.790;18.750;2022-12-11T11:45:08;6.28;;;2.83;;
67041;SDS011;53949;47.790;18.750;2022-12-11T11:55:13;4.00;;;2.25;;
67041;SDS011;53949;47.790;18.750;2022-12-11T11:58:31;3.62;;;2.50;;
67041;SDS011;53949;47.790;18.750;2022-12-11T12:01:46;4.20;;;2.78;;
67041;SDS011;53949;47.790;18.750;2022-12-11T12:04:50;5.30;;;2.95;;
67041;SDS011;53949;47.790;18.750;2022-12-11T12:32:36;4.75;;;2.87;;
67041;SDS011;53949;47.790;18.750;2022-12-11T12:49:57;6.10;;;3.28;;
67041;SDS011;53949;47.790;18.750;2022-12-11T12:53:02;5.45;;;3.10;;
67041;SDS011;53949;47.790;18.750;2022-12-11T12:56:07;3.95;;;2.53;;
67041;SDS011;53949;47.790;18.750;2022-12-11T12:59:24;5.82;;;3.67;;
67041;SDS011;53949;47.790;18.750;2022-12-11T13:05:32;3.40;;;2.37;;
67041;SDS011;53949;47.790;18.750;2022-12-11T13:08:45;6.50;;;3.58;;
67041;SDS011;53949;47.790;18.750;2022-12-11T13:11:50;6.37;;;3.42;;
67041;SDS011;53949;47.790;18.750;2022-12-11T13:14:56;4.55;;;2.87;;
67041;SDS011;53949;47.790;18.750;2022-12-11T13:18:02;3.10;;;2.80;;
67041;SDS011;53949;47.790;18.750;2022-12-11T13:24:30;6.00;;;3.15;;
67041;SDS011;53949;47.790;18.750;2022-12-11T13:30:44;5.53;;;3.40;;
67041;SDS011;53949;47.790;18.750;2022-12-11T13:33:56;5.45;;;3.62;;
67041;SDS011;53949;47.790;18.750;2022-12-11T13:40:33;5.10;;;3.83;;
67041;SDS011;53949;47.790;18.750;2022-12-11T13:43:45;6.20;;;3.72;;
67041;SDS011;53949;47.790;18.750;2022-12-11T13:46:49;6.67;;;4.10;;
67041;SDS011;53949;47.790;18.750;2022-12-11T13:49:54;6.00;;;4.20;;
67041;SDS011;53949;47.790;18.750;2022-12-11T13:53:12;6.50;;;2.92;;
67041;SDS011;53949;47.790;18.750;2022-12-11T13:56:20;4.90;;;3.50;;
67041;SDS011;53949;47.790;18.750;2022-12-11T13:59:27;7.95;;;4.10;;
67041;SDS011;53949;47.790;18.750;2022-12-11T14:02:37;5.37;;;3.67;;
67041;SDS011;53949;47.790;18.750;2022-12-11T14:05:47;8.68;;;4.75;;
67041;SDS011;53949;47.790;18.750;2022-12-11T14:08:52;4.18;;;2.75;;
67041;SDS011;53949;47.790;18.750;2022-12-11T14:11:57;6.87;;;4.20;;
67041;SDS011;53949;47.790;18.750;2022-12-11T14:15:01;6.28;;;4.03;;
67041;SDS011;53949;47.790;18.750;2022-12-11T14:18:05;7.20;;;4.25;;
67041;SDS011;53949;47.790;18.750;2022-12-11T14:21:16;8.90;;;3.60;;
67041;SDS011;53949;47.790;18.750;2022-12-11T14:24:22;13.38;;;5.25;;
67041;SDS011;53949;47.790;18.750;2022-12-11T14:27:26;9.15;;;4.12;;
67041;SDS011;53949;47.790;18.750;2022-12-11T14:30:33;8.55;;;4.55;;
67041;SDS011;53949;47.790;18.750;2022-12-11T14:33:39;7.27;;;4.03;;
67041;SDS011;53949;47.790;18.750;2022-12-11T14:36:46;7.60;;;4.32;;
67041;SDS011;53949;47.790;18.750;2022-12-11T14:40:00;9.52;;;4.45;;
67041;SDS011;53949;47.790;18.750;2022-12-11T14:53:07;9.52;;;4.15;;
67041;SDS011;53949;47.790;18.750;2022-12-11T14:56:17;4.87;;;3.17;;
67041;SDS011;53949;47.790;18.750;2022-12-11T14:59:29;7.20;;;4.12;;
67041;SDS011;53949;47.790;18.750;2022-12-11T15:02:35;6.47;;;3.67;;
67041;SDS011;53949;47.790;18.750;2022-12-11T15:05:52;6.97;;;4.10;;
67041;SDS011;53949;47.790;18.750;2022-12-11T15:09:19;5.07;;;3.20;;
67041;SDS011;53949;47.790;18.750;2022-12-11T15:12:29;6.22;;;3.95;;
67041;SDS011;53949;47.790;18.750;2022-12-11T15:15:36;12.95;;;5.05;;
67041;SDS011;53949;47.790;18.750;2022-12-11T15:18:50;6.60;;;3.90;;
67041;SDS011;53949;47.790;18.750;2022-12-11T15:22:06;5.35;;;3.12;;
67041;SDS011;53949;47.790;18.750;2022-12-11T15:25:18;6.60;;;4.40;;
67041;SDS011;53949;47.790;18.750;2022-12-11T15:28:31;5.78;;;3.50;;
67041;SDS011;53949;47.790;18.750;2022-12-11T15:31:36;7.12;;;4.18;;
67041;SDS011;53949;47.790;18.750;2022-12-11T15:37:55;7.40;;;3.90;;
67041;SDS011;53949;47.790;18.750;2022-12-11T15:41:02;6.45;;;4.05;;
67041;SDS011;53949;47.790;18.750;2022-12-11T15:44:07;10.20;;;5.20;;
67041;SDS011;53949;47.790;18.750;2022-12-11T15:47:22;8.43;;;4.47;;
67041;SDS011;53949;47.790;18.750;2022-12-11T15:50:30;5.72;;;3.33;;
67041;SDS011;53949;47.790;18.750;2022-12-11T15:53:39;8.25;;;3.05;;
67041;SDS011;53949;47.790;18.750;2022-12-11T15:56:42;7.30;;;4.30;;
67041;SDS011;53949;47.790;18.750;2022-12-11T15:59:48;7.45;;;3.17;;
67041;SDS011;53949;47.790;18.750;2022-12-11T16:02:54;7.32;;;4.10;;
67041;SDS011;53949;47.790;18.750;2022-12-11T16:06:03;7.97;;;4.68;;
67041;SDS011;53949;47.790;18.750;2022-12-11T16:09:06;8.27;;;2.85;;
67041;SDS011;53949;47.790;18.750;2022-12-11T16:12:10;5.62;;;3.67;;
67041;SDS011;53949;47.790;18.750;2022-12-11T16:15:13;8.60;;;4.25;;
67041;SDS011;53949;47.790;18.750;2022-12-11T16:18:25;8.13;;;4.85;;
67041;SDS011;53949;47.790;18.750;2022-12-11T16:21:28;10.90;;;5.57;;
67041;SDS011;53949;47.790;18.750;2022-12-11T16:24:35;9.85;;;4.37;;
67041;SDS011;53949;47.790;18.750;2022-12-11T16:27:39;9.45;;;4.80;;
67041;SDS011;53949;47.790;18.750;2022-12-11T16:30:44;9.82;;;5.03;;
67041;SDS011;53949;47.790;18.750;2022-12-11T16:33:48;4.68;;;3.35;;
67041;SDS011;53949;47.790;18.750;2022-12-11T16:36:51;7.75;;;3.53;;
67041;SDS011;53949;47.790;18.750;2022-12-11T16:39:56;7.40;;;3.40;;
67041;SDS011;53949;47.790;18.750;2022-12-11T16:43:00;9.68;;;3.85;;
67041;SDS011;53949;47.790;18.750;2022-12-11T16:46:05;7.53;;;4.05;;
67041;SDS011;53949;47.790;18.750;2022-12-11T16:49:10;6.77;;;3.20;;
67041;SDS011;53949;47.790;18.750;2022-12-11T16:52:14;7.28;;;4.12;;
67041;SDS011;53949;47.790;18.750;2022-12-11T16:55:24;3.90;;;3.05;;
67041;SDS011;53949;47.790;18.750;2022-12-11T16:58:29;6.50;;;4.03;;
67041;SDS011;53949;47.790;18.750;2022-12-11T17:01:33;8.52;;;4.57;;
67041;SDS011;53949;47.790;18.750;2022-12-11T17:04:37;7.28;;;3.83;;
67041;SDS011;53949;47.790;18.750;2022-12-11T17:07:42;5.03;;;3.47;;
67041;SDS011;53949;47.790;18.750;2022-12-11T17:10:45;9.45;;;4.55;;
67041;SDS011;53949;47.790;18.750;2022-12-11T17:13:53;7.93;;;4.15;;
67041;SDS011;53949;47.790;18.750;2022-12-11T17:16:57;8.70;;;4.53;;
67041;SDS011;53949;47.790;18.750;2022-12-11T17:20:01;7.03;;;4.12;;
67041;SDS011;53949;47.790;18.750;2022-12-11T17:23:05;4.87;;;2.97;;
67041;SDS011;53949;47.790;18.750;2022-12-11T17:26:14;4.75;;;3.33;;
67041;SDS011;53949;47.790;18.750;2022-12-11T17:29:21;6.45;;;2.85;;
67041;SDS011;53949;47.790;18.750;2022-12-11T17:35:31;7.40;;;3.75;;
67041;SDS011;53949;47.790;18.750;2022-12-11T17:41:41;5.10;;;2.97;;
67041;SDS011;53949;47.790;18.750;2022-12-11T17:44:45;6.15;;;3.83;;
67041;SDS011;53949;47.790;18.750;2022-12-11T17:47:49;6.07;;;4.03;;
67041;SDS011;53949;47.790;18.750;2022-12-11T17:50:56;8.85;;;4.97;;
67041;SDS011;53949;47.790;18.750;2022-12-11T17:54:00;6.93;;;4.00;;
67041;SDS011;53949;47.790;18.750;2022-12-11T17:57:06;3.10;;;2.08;;
67041;SDS011;53949;47.790;18.750;2022-12-11T18:00:13;6.87;;;3.65;;
67041;SDS011;53949;47.790;18.750;2022-12-11T18:03:19;8.07;;;4.30;;
67041;SDS011;53949;47.790;18.750;2022-12-11T18:06:22;8.45;;;4.70;;
67041;SDS011;53949;47.790;18.750;2022-12-11T18:09:27;10.07;;;4.67;;
67041;SDS011;53949;47.790;18.750;2022-12-11T18:12:31;2.70;;;2.37;;
67041;SDS011;53949;47.790;18.750;2022-12-11T18:15:38;3.92;;;3.08;;
67041;SDS011;53949;47.790;18.750;2022-12-11T18:18:43;9.30;;;4.65;;
67041;SDS011;53949;47.790;18.750;2022-12-11T18:21:49;5.20;;;3.50;;
67041;SDS011;53949;47.790;18.750;2022-12-11T18:24:56;11.15;;;5.22;;
67041;SDS011;53949;47.790;18.750;2022-12-11T18:28:08;11.63;;;5.53;;
67041;SDS011;53949;47.790;18.750;2022-12-11T18:31:15;9.73;;;4.68;;
67041;SDS011;53949;47.790;18.750;2022-12-11T18:34:26;10.13;;;4.47;;
67041;SDS011;53949;47.790;18.750;2022-12-11T18:37:42;7.40;;;3.85;;
67041;SDS011;53949;47.790;18.750;2022-12-11T18:41:01;9.60;;;5.20;;
67041;SDS011;53949;47.790;18.750;2022-12-11T18:44:15;7.22;;;3.65;;
67041;SDS011;53949;47.790;18.750;2022-12-11T18:47:26;8.60;;;4.65;;
67041;SDS011;53949;47.790;18.750;2022-12-11T18:50:33;8.63;;;5.00;;
67041;SDS011;53949;47.790;18.750;2022-12-11T18:53:41;10.55;;;5.72;;
67041;SDS011;53949;47.790;18.750;2022-12-11T18:56:52;10.18;;;5.35;;
67041;SDS011;53949;47.790;18.750;2022-12-11T19:00:05;13.10;;;6.28;;
67041;SDS011;53949;47.790;18.750;2022-12-11T19:03:30;8.68;;;5.00;;
67041;SDS011;53949;47.790;18.750;2022-12-11T19:06:37;12.80;;;5.35;;
67041;SDS011;53949;47.790;18.750;2022-12-11T19:10:04;12.73;;;5.60;;
67041;SDS011;53949;47.790;18.750;2022-12-11T19:13:11;10.52;;;5.07;;
67041;SDS011;53949;47.790;18.750;2022-12-11T19:16:20;11.45;;;4.85;;
67041;SDS011;53949;47.790;18.750;2022-12-11T19:19:39;11.18;;;6.12;;
67041;SDS011;53949;47.790;18.750;2022-12-11T19:22:49;11.75;;;6.35;;
67041;SDS011;53949;47.790;18.750;2022-12-11T19:26:02;9.13;;;5.32;;
67041;SDS011;53949;47.790;18.750;2022-12-11T19:29:07;17.98;;;6.80;;
67041;SDS011;53949;47.790;18.750;2022-12-11T19:32:16;13.10;;;7.15;;
67041;SDS011;53949;47.790;18.750;2022-12-11T19:35:20;14.73;;;7.57;;
67041;SDS011;53949;47.790;18.750;2022-12-11T19:38:26;12.88;;;7.35;;
67041;SDS011;53949;47.790;18.750;2022-12-11T19:41:35;11.88;;;6.40;;
67041;SDS011;53949;47.790;18.750;2022-12-11T19:44:43;15.23;;;8.50;;
67041;SDS011;53949;47.790;18.750;2022-12-11T19:47:50;10.90;;;5.78;;
67041;SDS011;53949;47.790;18.750;2022-12-11T19:50:56;15.75;;;6.87;;
67041;SDS011;53949;47.790;18.750;2022-12-11T19:54:09;16.25;;;7.35;;
67041;SDS011;53949;47.790;18.750;2022-12-11T19:57:17;9.00;;;5.12;;
67041;SDS011;53949;47.790;18.750;2022-12-11T20:00:22;7.93;;;4.90;;
67041;SDS011;53949;47.790;18.750;2022-12-11T20:03:28;13.73;;;7.57;;
67041;SDS011;53949;47.790;18.750;2022-12-11T20:06:32;16.58;;;7.97;;
67041;SDS011;53949;47.790;18.750;2022-12-11T20:09:39;20.45;;;8.52;;
67041;SDS011;53949;47.790;18.750;2022-12-11T20:12:44;16.62;;;7.50;;
67041;SDS011;53949;47.790;18.750;2022-12-11T20:15:53;17.98;;;8.27;;
67041;SDS011;53949;47.790;18.750;2022-12-11T20:18:59;15.02;;;6.90;;
67041;SDS011;53949;47.790;18.750;2022-12-11T20:22:06;14.75;;;7.82;;
67041;SDS011;53949;47.790;18.750;2022-12-11T20:25:12;15.50;;;7.97;;
67041;SDS011;53949;47.790;18.750;2022-12-11T20:28:19;11.30;;;6.57;;
67041;SDS011;53949;47.790;18.750;2022-12-11T20:31:24;8.13;;;4.90;;
67041;SDS011;53949;47.790;18.750;2022-12-11T20:34:30;14.13;;;6.95;;
67041;SDS011;53949;47.790;18.750;2022-12-11T20:37:37;17.48;;;8.20;;
67041;SDS011;53949;47.790;18.750;2022-12-11T20:40:44;17.23;;;7.18;;
67041;SDS011;53949;47.790;18.750;2022-12-11T20:43:49;16.23;;;7.40;;
67041;SDS011;53949;47.790;18.750;2022-12-11T20:46:56;15.48;;;8.45;;